Crystal, Nevada
Current Conditions -  °F | °C
As of 3:52 PM on Wednesday 22 Oct 2014 (Local Time) from KDRA Reporting Station
Clear Clear  
Wind Chill: 79°   Ceiling: Unl
Heat Index: 79°   Visibility: 10mi
Dew Point: 19°   Wind: 7mph
Humidity: 11%   Direction: NA
Pressure: 30.04"   Gusts: NA
Location:  36.2552°N, 116.039°W
Report Text: KDRA 222252Z AUTO VRB06KT 10SM CLR 26/M07 A3004 RMK AO2 SLP137 T02611072
Loading
Personal Weather Stations






























Interactive Weather Map
Tropical Storm Tracking
New forecast layout! Learn more

10-Day Weather Forecast

Advertisements
Track Severe Weather on mobile